sensor_id;sensor_type;location;lat;lon;timestamp;pressure;altitude;pressure_sealevel;temperature;humidity
43770;BME280;6597;52.218;9.882;2023-09-07T00:02:26;101405.03;;;16.31;97.56
43770;BME280;6597;52.218;9.882;2023-09-07T00:04:52;101414.06;;;16.27;97.72
43770;BME280;6597;52.218;9.882;2023-09-07T00:07:19;101408.03;;;16.24;97.78
43770;BME280;6597;52.218;9.882;2023-09-07T00:09:45;101410.91;;;16.19;97.81
43770;BME280;6597;52.218;9.882;2023-09-07T00:12:13;101411.91;;;16.16;98.13
43770;BME280;6597;52.218;9.882;2023-09-07T00:14:40;101419.13;;;16.13;98.48
43770;BME280;6597;52.218;9.882;2023-09-07T00:17:06;101412.06;;;16.13;98.11
43770;BME280;6597;52.218;9.882;2023-09-07T00:19:33;101409.56;;;16.10;98.24
43770;BME280;6597;52.218;9.882;2023-09-07T00:22:02;101409.78;;;16.06;98.10
43770;BME280;6597;52.218;9.882;2023-09-07T00:24:29;101411.00;;;15.99;98.55
43770;BME280;6597;52.218;9.882;2023-09-07T00:26:56;101388.88;;;15.81;99.42
43770;BME280;6597;52.218;9.882;2023-09-07T00:29:24;101411.69;;;15.83;100.00
43770;BME280;6597;52.218;9.882;2023-09-07T00:31:51;101411.91;;;15.79;100.00
43770;BME280;6597;52.218;9.882;2023-09-07T00:34:17;101404.13;;;15.76;100.00
43770;BME280;6597;52.218;9.882;2023-09-07T00:36:44;101402.47;;;15.73;100.00
43770;BME280;6597;52.218;9.882;2023-09-07T00:39:10;101410.34;;;15.75;100.00
43770;BME280;6597;52.218;9.882;2023-09-07T00:41:37;101415.72;;;15.73;100.00
43770;BME280;6597;52.218;9.882;2023-09-07T00:44:04;101416.66;;;15.72;100.00
43770;BME280;6597;52.218;9.882;2023-09-07T00:46:32;101410.78;;;15.66;100.00
43770;BME280;6597;52.218;9.882;2023-09-07T00:49:00;101411.00;;;15.61;100.00
43770;BME280;6597;52.218;9.882;2023-09-07T00:51:27;101404.81;;;15.61;100.00
43770;BME280;6597;52.218;9.882;2023-09-07T00:53:54;101403.94;;;15.60;100.00
43770;BME280;6597;52.218;9.882;2023-09-07T00:56:21;101407.63;;;15.56;100.00
43770;BME280;6597;52.218;9.882;2023-09-07T00:58:48;101406.84;;;15.54;100.00
43770;BME280;6597;52.218;9.882;2023-09-07T01:01:14;101406.84;;;15.54;100.00
43770;BME280;6597;52.218;9.882;2023-09-07T01:03:42;101410.44;;;15.53;100.00
43770;BME280;6597;52.218;9.882;2023-09-07T01:06:16;101407.84;;;15.51;100.00
43770;BME280;6597;52.218;9.882;2023-09-07T01:08:47;101412.28;;;15.51;100.00
43770;BME280;6597;52.218;9.882;2023-09-07T01:11:14;101408.84;;;15.49;100.00
43770;BME280;6597;52.218;9.882;2023-09-07T01:13:41;101409.19;;;15.41;100.00
43770;BME280;6597;52.218;9.882;2023-09-07T01:16:09;101403.34;;;15.35;100.00
43770;BME280;6597;52.218;9.882;2023-09-07T01:18:37;101401.69;;;15.32;100.00
43770;BME280;6597;52.218;9.882;2023-09-07T01:21:08;101400.81;;;15.32;100.00
43770;BME280;6597;52.218;9.882;2023-09-07T01:23:37;101396.56;;;15.27;100.00
43770;BME280;6597;52.218;9.882;2023-09-07T01:26:06;101402.13;;;15.21;100.00
43770;BME280;6597;52.218;9.882;2023-09-07T01:28:33;101393.63;;;15.15;100.00
43770;BME280;6597;52.218;9.882;2023-09-07T01:31:00;101394.69;;;15.11;100.00
43770;BME280;6597;52.218;9.882;2023-09-07T01:33:27;101395.69;;;15.08;100.00
43770;BME280;6597;52.218;9.882;2023-09-07T01:35:54;101407.31;;;15.04;100.00
43770;BME280;6597;52.218;9.882;2023-09-07T01:38:21;101395.22;;;14.99;100.00
43770;BME280;6597;52.218;9.882;2023-09-07T01:40:49;101389.25;;;14.93;100.00
43770;BME280;6597;52.218;9.882;2023-09-07T01:43:15;101403.53;;;14.89;100.00
43770;BME280;6597;52.218;9.882;2023-09-07T01:45:42;101394.88;;;14.86;100.00
43770;BME280;6597;52.218;9.882;2023-09-07T01:48:11;101391.50;;;14.82;100.00
43770;BME280;6597;52.218;9.882;2023-09-07T01:50:38;101395.00;;;14.83;100.00
43770;BME280;6597;52.218;9.882;2023-09-07T01:53:05;101400.28;;;14.83;100.00
43770;BME280;6597;52.218;9.882;2023-09-07T01:55:32;101399.56;;;14.79;100.00
43770;BME280;6597;52.218;9.882;2023-09-07T01:58:01;101401.47;;;14.76;100.00
43770;BME280;6597;52.218;9.882;2023-09-07T02:00:27;101402.34;;;14.76;100.00
43770;BME280;6597;52.218;9.882;2023-09-07T02:02:54;101409.47;;;14.74;100.00
43770;BME280;6597;52.218;9.882;2023-09-07T02:05:20;101411.25;;;14.74;100.00
43770;BME280;6597;52.218;9.882;2023-09-07T02:07:47;101412.25;;;14.71;100.00
43770;BME280;6597;52.218;9.882;2023-09-07T02:10:15;101410.59;;;14.69;100.00
43770;BME280;6597;52.218;9.882;2023-09-07T02:12:42;101406.41;;;14.63;100.00
43770;BME280;6597;52.218;9.882;2023-09-07T02:15:11;101402.91;;;14.62;100.00
43770;BME280;6597;52.218;9.882;2023-09-07T02:17:37;101405.53;;;14.62;100.00
43770;BME280;6597;52.218;9.882;2023-09-07T02:20:05;101399.53;;;14.59;100.00
43770;BME280;6597;52.218;9.882;2023-09-07T02:22:35;101392.59;;;14.56;100.00
43770;BME280;6597;52.218;9.882;2023-09-07T02:25:03;101397.09;;;14.54;100.00
43770;BME280;6597;52.218;9.882;2023-09-07T02:27:31;101394.50;;;14.53;100.00
43770;BME280;6597;52.218;9.882;2023-09-07T02:29:58;101401.50;;;14.54;100.00
43770;BME280;6597;52.218;9.882;2023-09-07T02:32:26;101398.13;;;14.50;100.00
43770;BME280;6597;52.218;9.882;2023-09-07T02:34:53;101405.13;;;14.51;100.00
43770;BME280;6597;52.218;9.882;2023-09-07T02:37:19;101401.56;;;14.52;100.00
43770;BME280;6597;52.218;9.882;2023-09-07T02:39:46;101397.28;;;14.50;100.00
43770;BME280;6597;52.218;9.882;2023-09-07T02:42:12;101398.38;;;14.44;100.00
43770;BME280;6597;52.218;9.882;2023-09-07T02:44:39;101398.38;;;14.44;100.00
43770;BME280;6597;52.218;9.882;2023-09-07T02:47:06;101402.84;;;14.42;100.00
43770;BME280;6597;52.218;9.882;2023-09-07T02:49:34;101398.56;;;14.40;100.00
43770;BME280;6597;52.218;9.882;2023-09-07T02:52:01;101401.19;;;14.40;100.00
43770;BME280;6597;52.218;9.882;2023-09-07T02:54:27;101407.47;;;14.37;100.00
43770;BME280;6597;52.218;9.882;2023-09-07T02:56:54;101409.25;;;14.37;100.00
43770;BME280;6597;52.218;9.882;2023-09-07T02:59:21;101400.41;;;14.38;100.00
43770;BME280;6597;52.218;9.882;2023-09-07T03:01:48;101398.69;;;14.37;100.00
43770;BME280;6597;52.218;9.882;2023-09-07T03:04:14;101398.75;;;14.35;100.00
43770;BME280;6597;52.218;9.882;2023-09-07T03:06:42;101398.88;;;14.32;100.00
43770;BME280;6597;52.218;9.882;2023-09-07T03:09:09;101398.16;;;14.27;100.00
43770;BME280;6597;52.218;9.882;2023-09-07T03:11:37;101399.16;;;14.24;100.00
43770;BME280;6597;52.218;9.882;2023-09-07T03:14:04;101402.72;;;14.23;100.00
43770;BME280;6597;52.218;9.882;2023-09-07T03:16:30;101395.66;;;14.24;100.00
43770;BME280;6597;52.218;9.882;2023-09-07T03:18:57;101400.94;;;14.24;100.00
43770;BME280;6597;52.218;9.882;2023-09-07T03:21:24;101396.56;;;14.23;100.00
43770;BME280;6597;52.218;9.882;2023-09-07T03:23:56;101401.78;;;14.24;100.00
43770;BME280;6597;52.218;9.882;2023-09-07T03:26:23;101398.22;;;14.25;100.00
43770;BME280;6597;52.218;9.882;2023-09-07T03:28:50;101402.59;;;14.26;100.00
43770;BME280;6597;52.218;9.882;2023-09-07T03:31:16;101402.72;;;14.23;100.00
43770;BME280;6597;52.218;9.882;2023-09-07T03:33:44;101401.06;;;14.21;100.00
43770;BME280;6597;52.218;9.882;2023-09-07T03:36:11;101403.69;;;14.21;100.00
43770;BME280;6597;52.218;9.882;2023-09-07T03:38:40;101402.09;;;14.17;100.00
43770;BME280;6597;52.218;9.882;2023-09-07T03:41:08;101403.28;;;14.10;100.00
43770;BME280;6597;52.218;9.882;2023-09-07T03:43:34;101407.09;;;14.02;100.00
43770;BME280;6597;52.218;9.882;2023-09-07T03:46:01;101406.38;;;13.97;100.00
43770;BME280;6597;52.218;9.882;2023-09-07T03:48:28;101408.31;;;13.92;100.00
43770;BME280;6597;52.218;9.882;2023-09-07T03:50:54;101405.00;;;13.87;100.00
43770;BME280;6597;52.218;9.882;2023-09-07T03:53:21;101409.50;;;13.85;100.00
43770;BME280;6597;52.218;9.882;2023-09-07T03:55:47;101409.63;;;13.82;100.00
43770;BME280;6597;52.218;9.882;2023-09-07T03:58:17;101410.53;;;13.81;100.00
43770;BME280;6597;52.218;9.882;2023-09-07T04:00:44;101414.03;;;13.82;100.00
43770;BME280;6597;52.218;9.882;2023-09-07T04:03:11;101418.50;;;13.80;100.00
43770;BME280;6597;52.218;9.882;2023-09-07T04:05:37;101417.78;;;13.76;100.00
43770;BME280;6597;52.218;9.882;2023-09-07T04:08:05;101414.44;;;13.71;100.00
43770;BME280;6597;52.218;9.882;2023-09-07T04:10:32;101415.44;;;13.68;100.00
43770;BME280;6597;52.218;9.882;2023-09-07T04:12:59;101418.97;;;13.67;100.00
43770;BME280;6597;52.218;9.882;2023-09-07T04:15:27;101416.44;;;13.64;100.00
43770;BME280;6597;52.218;9.882;2023-09-07T04:17:54;101418.44;;;13.58;100.00
43770;BME280;6597;52.218;9.882;2023-09-07T04:20:21;101422.97;;;13.54;100.00
43770;BME280;6597;52.218;9.882;2023-09-07T04:22:50;101420.44;;;13.51;100.00
43770;BME280;6597;52.218;9.882;2023-09-07T04:25:17;101421.47;;;13.47;100.00
43770;BME280;6597;52.218;9.882;2023-09-07T04:27:43;101420.69;;;13.45;100.00
43770;BME280;6597;52.218;9.882;2023-09-07T04:30:11;101424.28;;;13.43;100.00
43770;BME280;6597;52.218;9.882;2023-09-07T04:32:39;101428.81;;;13.39;100.00
43770;BME280;6597;52.218;9.882;2023-09-07T04:35:07;101428.94;;;13.36;100.00
43770;BME280;6597;52.218;9.882;2023-09-07T04:37:33;101427.22;;;13.35;100.00
43770;BME280;6597;52.218;9.882;2023-09-07T04:40:00;101424.63;;;13.33;100.00
43770;BME280;6597;52.218;9.882;2023-09-07T04:42:27;101429.06;;;13.31;100.00
43770;BME280;6597;52.218;9.882;2023-09-07T04:44:54;101428.16;;;13.32;100.00
43770;BME280;6597;52.218;9.882;2023-09-07T04:47:21;101421.09;;;13.33;100.00
43770;BME280;6597;52.218;9.882;2023-09-07T04:49:49;101433.41;;;13.32;100.00
43770;BME280;6597;52.218;9.882;2023-09-07T04:52:18;101434.28;;;13.33;100.00
43770;BME280;6597;52.218;9.882;2023-09-07T04:54:45;101427.22;;;13.35;100.00
43770;BME280;6597;52.218;9.882;2023-09-07T04:57:15;101431.56;;;13.36;100.00
43770;BME280;6597;52.218;9.882;2023-09-07T04:59:42;101433.34;;;13.35;100.00
43770;BME280;6597;52.218;9.882;2023-09-07T05:02:08;101436.84;;;13.36;100.00
43770;BME280;6597;52.218;9.882;2023-09-07T05:04:35;101435.97;;;13.35;100.00
43770;BME280;6597;52.218;9.882;2023-09-07T05:07:03;101435.13;;;13.35;100.00
43770;BME280;6597;52.218;9.882;2023-09-07T05:09:30;101440.44;;;13.33;100.00
43770;BME280;6597;52.218;9.882;2023-09-07T05:11:57;101442.13;;;13.36;100.00
43770;BME280;6597;52.218;9.882;2023-09-07T05:14:23;101438.56;;;13.37;100.00
43770;BME280;6597;52.218;9.882;2023-09-07T05:16:50;101438.50;;;13.38;100.00
43770;BME280;6597;52.218;9.882;2023-09-07T05:19:17;101434.84;;;13.43;100.00
43770;BME280;6597;52.218;9.882;2023-09-07T05:21:44;101430.47;;;13.42;100.00
43770;BME280;6597;52.218;9.882;2023-09-07T05:24:14;101434.78;;;13.44;100.00
43770;BME280;6597;52.218;9.882;2023-09-07T05:26:41;101423.31;;;13.45;100.00
43770;BME280;6597;52.218;9.882;2023-09-07T05:29:08;101428.41;;;13.50;100.00
43770;BME280;6597;52.218;9.882;2023-09-07T05:31:35;101431.75;;;13.55;100.00
43770;BME280;6597;52.218;9.882;2023-09-07T05:34:01;101427.28;;;13.57;100.00
43770;BME280;6597;52.218;9.882;2023-09-07T05:36:29;101438.50;;;13.62;100.00
43770;BME280;6597;52.218;9.882;2023-09-07T05:38:56;101436.59;;;13.67;100.00
43770;BME280;6597;52.218;9.882;2023-09-07T05:41:24;101431.94;;;13.74;100.00
43770;BME280;6597;52.218;9.882;2023-09-07T05:43:52;101427.28;;;13.80;100.00
43770;BME280;6597;52.218;9.882;2023-09-07T05:46:19;101431.28;;;13.90;100.00
43770;BME280;6597;52.218;9.882;2023-09-07T05:48:46;101434.47;;;14.00;100.00
43770;BME280;6597;52.218;9.882;2023-09-07T05:51:13;101433.22;;;14.09;100.00
43770;BME280;6597;52.218;9.882;2023-09-07T05:53:40;101433.84;;;14.15;100.00
43770;BME280;6597;52.218;9.882;2023-09-07T05:56:06;101429.06;;;14.25;100.00
43770;BME280;6597;52.218;9.882;2023-09-07T05:58:35;101427.00;;;14.33;100.00
43770;BME280;6597;52.218;9.882;2023-09-07T06:01:03;101432.78;;;14.43;100.00
43770;BME280;6597;52.218;9.882;2023-09-07T06:03:31;101426.00;;;14.57;100.00
43770;BME280;6597;52.218;9.882;2023-09-07T06:05:58;101433.47;;;14.70;100.00
43770;BME280;6597;52.218;9.882;2023-09-07T06:08:24;101438.34;;;14.79;100.00
43770;BME280;6597;52.218;9.882;2023-09-07T06:10:53;101436.97;;;14.90;100.00
43770;BME280;6597;52.218;9.882;2023-09-07T06:13:19;101431.97;;;15.05;100.00
43770;BME280;6597;52.218;9.882;2023-09-07T06:15:47;101440.94;;;15.21;100.00
43770;BME280;6597;52.218;9.882;2023-09-07T06:18:14;101438.78;;;15.31;100.00
43770;BME280;6597;52.218;9.882;2023-09-07T06:20:41;101441.03;;;15.40;100.00
43770;BME280;6597;52.218;9.882;2023-09-07T06:23:08;101446.88;;;15.46;100.00
43770;BME280;6597;52.218;9.882;2023-09-07T06:25:34;101441.94;;;15.59;100.00
43770;BME280;6597;52.218;9.882;2023-09-07T06:28:01;101454.69;;;15.70;100.00
43770;BME280;6597;52.218;9.882;2023-09-07T06:30:27;101460.16;;;15.85;100.00
43770;BME280;6597;52.218;9.882;2023-09-07T06:32:55;101449.19;;;15.93;100.00
43770;BME280;6597;52.218;9.882;2023-09-07T06:35:24;101460.09;;;16.06;100.00
43770;BME280;6597;52.218;9.882;2023-09-07T06:37:51;101452.50;;;16.17;100.00
43770;BME280;6597;52.218;9.882;2023-09-07T06:40:21;101453.81;;;16.27;100.00
43770;BME280;6597;52.218;9.882;2023-09-07T06:42:51;101453.34;;;16.36;100.00
43770;BME280;6597;52.218;9.882;2023-09-07T06:45:20;101458.13;;;16.47;100.00
43770;BME280;6597;52.218;9.882;2023-09-07T06:47:49;101452.28;;;16.58;100.00
43770;BME280;6597;52.218;9.882;2023-09-07T06:50:17;101457.75;;;16.73;100.00
43770;BME280;6597;52.218;9.882;2023-09-07T06:52:44;101460.56;;;16.88;100.00
43770;BME280;6597;52.218;9.882;2023-09-07T06:55:11;101452.78;;;17.02;98.99
43770;BME280;6597;52.218;9.882;2023-09-07T06:57:37;101453.16;;;17.11;97.40
43770;BME280;6597;52.218;9.882;2023-09-07T07:00:05;101454.31;;;17.23;96.10
43770;BME280;6597;52.218;9.882;2023-09-07T07:02:33;101457.22;;;17.36;95.98
43770;BME280;6597;52.218;9.882;2023-09-07T07:05:00;101464.19;;;17.54;95.75
43770;BME280;6597;52.218;9.882;2023-09-07T07:07:29;101462.31;;;17.73;92.88
43770;BME280;6597;52.218;9.882;2023-09-07T07:09:56;101460.47;;;17.91;92.85
43770;BME280;6597;52.218;9.882;2023-09-07T07:12:23;101459.03;;;18.17;91.72
43770;BME280;6597;52.218;9.882;2023-09-07T07:14:49;101460.81;;;18.48;91.42
43770;BME280;6597;52.218;9.882;2023-09-07T07:17:16;101458.69;;;18.86;89.05
43770;BME280;6597;52.218;9.882;2023-09-07T07:19:43;101457.63;;;19.33;88.28
43770;BME280;6597;52.218;9.882;2023-09-07T07:22:10;101456.06;;;19.73;85.47
43770;BME280;6597;52.218;9.882;2023-09-07T07:24:37;101458.22;;;20.09;82.39
43770;BME280;6597;52.218;9.882;2023-09-07T07:27:06;101454.56;;;20.39;81.24
43770;BME280;6597;52.218;9.882;2023-09-07T07:29:34;101452.38;;;20.72;81.05
43770;BME280;6597;52.218;9.882;2023-09-07T07:32:01;101453.31;;;21.11;80.29
43770;BME280;6597;52.218;9.882;2023-09-07T07:34:28;101463.13;;;21.50;77.14
43770;BME280;6597;52.218;9.882;2023-09-07T07:36:55;101455.53;;;21.82;74.62
43770;BME280;6597;52.218;9.882;2023-09-07T07:39:22;101463.38;;;22.09;73.22
43770;BME280;6597;52.218;9.882;2023-09-07T07:41:50;101455.63;;;22.30;73.08
43770;BME280;6597;52.218;9.882;2023-09-07T07:44:17;101453.94;;;22.53;72.68
43770;BME280;6597;52.218;9.882;2023-09-07T07:46:44;101457.25;;;22.80;71.58
43770;BME280;6597;52.218;9.882;2023-09-07T07:49:11;101452.59;;;23.06;68.97
43770;BME280;6597;52.218;9.882;2023-09-07T07:51:38;101459.72;;;23.29;65.95
43770;BME280;6597;52.218;9.882;2023-09-07T07:54:05;101470.38;;;23.53;67.30
43770;BME280;6597;52.218;9.882;2023-09-07T07:56:31;101460.56;;;23.76;67.28
43770;BME280;6597;52.218;9.882;2023-09-07T07:58:59;101462.97;;;24.02;65.73
43770;BME280;6597;52.218;9.882;2023-09-07T08:01:27;101458.94;;;24.30;64.63
43770;BME280;6597;52.218;9.882;2023-09-07T08:03:55;101464.59;;;24.59;64.24
43770;BME280;6597;52.218;9.882;2023-09-07T08:06:23;101453.09;;;24.68;62.45
43770;BME280;6597;52.218;9.882;2023-09-07T08:08:50;101457.47;;;24.69;63.16
43770;BME280;6597;52.218;9.882;2023-09-07T08:11:16;101456.34;;;24.82;63.38
43770;BME280;6597;52.218;9.882;2023-09-07T08:13:46;101452.88;;;24.92;61.35
43770;BME280;6597;52.218;9.882;2023-09-07T08:16:15;101455.88;;;25.09;61.42
43770;BME280;6597;52.218;9.882;2023-09-07T08:18:43;101450.63;;;25.29;60.70
43770;BME280;6597;52.218;9.882;2023-09-07T08:21:11;101444.69;;;25.56;60.54
43770;BME280;6597;52.218;9.882;2023-09-07T08:23:38;101445.41;;;25.79;59.75
43770;BME280;6597;52.218;9.882;2023-09-07T08:26:05;101443.16;;;25.84;57.30
43770;BME280;6597;52.218;9.882;2023-09-07T08:28:32;101450.00;;;25.97;57.39
43770;BME280;6597;52.218;9.882;2023-09-07T08:30:59;101443.97;;;26.24;56.54
43770;BME280;6597;52.218;9.882;2023-09-07T08:33:28;101447.38;;;26.26;55.66
43770;BME280;6597;52.218;9.882;2023-09-07T08:35:56;101448.22;;;26.17;56.06
43770;BME280;6597;52.218;9.882;2023-09-07T08:38:23;101446.53;;;26.26;57.62
43770;BME280;6597;52.218;9.882;2023-09-07T08:40:53;101427.47;;;26.48;57.08
43770;BME280;6597;52.218;9.882;2023-09-07T08:43:20;101434.28;;;26.81;55.93
43770;BME280;6597;52.218;9.882;2023-09-07T08:45:51;101441.13;;;27.05;54.07
43770;BME280;6597;52.218;9.882;2023-09-07T08:48:24;101440.78;;;26.98;53.07
43770;BME280;6597;52.218;9.882;2023-09-07T08:50:54;101446.81;;;27.02;52.34
43770;BME280;6597;52.218;9.882;2023-09-07T08:53:21;101445.81;;;27.03;52.52
43770;BME280;6597;52.218;9.882;2023-09-07T08:55:49;101447.03;;;27.18;51.56
43770;BME280;6597;52.218;9.882;2023-09-07T08:58:15;101447.16;;;27.26;51.97
43770;BME280;6597;52.218;9.882;2023-09-07T09:00:42;101448.16;;;27.35;51.87
43770;BME280;6597;52.218;9.882;2023-09-07T09:03:09;101447.38;;;27.52;51.28
43770;BME280;6597;52.218;9.882;2023-09-07T09:05:39;101446.78;;;27.58;51.32
43770;BME280;6597;52.218;9.882;2023-09-07T09:08:07;101440.97;;;27.63;50.30
43770;BME280;6597;52.218;9.882;2023-09-07T09:10:33;101449.94;;;27.63;53.62
43770;BME280;6597;52.218;9.882;2023-09-07T09:13:00;101444.72;;;27.89;50.74
43770;BME280;6597;52.218;9.882;2023-09-07T09:15:26;101434.88;;;28.25;50.91
43770;BME280;6597;52.218;9.882;2023-09-07T09:17:53;101439.63;;;28.59;49.72
43770;BME280;6597;52.218;9.882;2023-09-07T09:20:21;101437.16;;;28.65;48.91
43770;BME280;6597;52.218;9.882;2023-09-07T09:22:51;101433.16;;;28.69;48.44
43770;BME280;6597;52.218;9.882;2023-09-07T09:25:19;101430.97;;;28.91;48.24
43770;BME280;6597;52.218;9.882;2023-09-07T09:27:46;101430.44;;;29.05;46.38
43770;BME280;6597;52.218;9.882;2023-09-07T09:30:13;101433.28;;;29.03;46.05
43770;BME280;6597;52.218;9.882;2023-09-07T09:32:41;101426.84;;;28.96;46.96
43770;BME280;6597;52.218;9.882;2023-09-07T09:35:09;101426.84;;;28.96;46.89
43770;BME280;6597;52.218;9.882;2023-09-07T09:37:44;101428.34;;;28.81;48.39
43770;BME280;6597;52.218;9.882;2023-09-07T09:40:12;101416.72;;;28.98;47.02
43770;BME280;6597;52.218;9.882;2023-09-07T09:42:41;101429.91;;;29.01;46.45
43770;BME280;6597;52.218;9.882;2023-09-07T09:45:09;101418.09;;;29.02;46.85
43770;BME280;6597;52.218;9.882;2023-09-07T09:47:38;101415.75;;;29.07;46.25
43770;BME280;6597;52.218;9.882;2023-09-07T09:50:06;101422.94;;;28.81;46.01
43770;BME280;6597;52.218;9.882;2023-09-07T09:52:34;101411.59;;;28.60;46.10
43770;BME280;6597;52.218;9.882;2023-09-07T09:55:03;101413.22;;;28.52;46.62
43770;BME280;6597;52.218;9.882;2023-09-07T09:57:31;101407.44;;;28.65;47.28
43770;BME280;6597;52.218;9.882;2023-09-07T09:59:59;101403.59;;;28.86;46.15
43770;BME280;6597;52.218;9.882;2023-09-07T10:02:39;101410.63;;;28.96;45.01
43770;BME280;6597;52.218;9.882;2023-09-07T10:05:07;101408.06;;;28.95;45.17
43770;BME280;6597;52.218;9.882;2023-09-07T10:07:41;101410.88;;;29.11;44.61
43770;BME280;6597;52.218;9.882;2023-09-07T10:10:09;101414.31;;;29.21;44.80
43770;BME280;6597;52.218;9.882;2023-09-07T10:12:40;101414.28;;;29.39;44.06
43770;BME280;6597;52.218;9.882;2023-09-07T10:15:19;101401.66;;;29.82;44.78
43770;BME280;6597;52.218;9.882;2023-09-07T10:17:46;101410.69;;;29.98;42.56
43770;BME280;6597;52.218;9.882;2023-09-07T10:20:15;101407.97;;;29.98;43.38
43770;BME280;6597;52.218;9.882;2023-09-07T10:22:42;101406.03;;;30.17;45.39
43770;BME280;6597;52.218;9.882;2023-09-07T10:25:18;101389.16;;;30.47;40.84
43770;BME280;6597;52.218;9.882;2023-09-07T10:27:45;101398.63;;;30.43;41.62
43770;BME280;6597;52.218;9.882;2023-09-07T10:30:14;101389.81;;;30.33;42.18
43770;BME280;6597;52.218;9.882;2023-09-07T10:32:45;101404.88;;;30.27;40.56
43770;BME280;6597;52.218;9.882;2023-09-07T10:35:13;101395.00;;;30.10;42.40
43770;BME280;6597;52.218;9.882;2023-09-07T10:37:40;101383.50;;;30.16;41.12
43770;BME280;6597;52.218;9.882;2023-09-07T10:40:08;101397.22;;;30.15;42.10
43770;BME280;6597;52.218;9.882;2023-09-07T10:42:37;101387.25;;;30.23;41.87
43770;BME280;6597;52.218;9.882;2023-09-07T10:45:09;101383.03;;;30.29;40.91
43770;BME280;6597;52.218;9.882;2023-09-07T10:47:40;101379.81;;;30.50;40.99
43770;BME280;6597;52.218;9.882;2023-09-07T10:50:07;101372.09;;;30.71;40.95
43770;BME280;6597;52.218;9.882;2023-09-07T10:52:35;101379.53;;;30.93;40.92
43770;BME280;6597;52.218;9.882;2023-09-07T10:55:02;101383.59;;;30.98;39.29
43770;BME280;6597;52.218;9.882;2023-09-07T10:57:29;101385.59;;;31.12;40.16
43770;BME280;6597;52.218;9.882;2023-09-07T10:59:55;101378.28;;;31.37;40.13
43770;BME280;6597;52.218;9.882;2023-09-07T11:02:22;101368.31;;;31.68;38.34
43770;BME280;6597;52.218;9.882;2023-09-07T11:04:50;101370.66;;;31.87;38.38
43770;BME280;6597;52.218;9.882;2023-09-07T11:07:17;101365.22;;;31.87;38.15
43770;BME280;6597;52.218;9.882;2023-09-07T11:09:44;101360.66;;;31.80;38.06
43770;BME280;6597;52.218;9.882;2023-09-07T11:12:12;101356.59;;;31.76;38.78
43770;BME280;6597;52.218;9.882;2023-09-07T11:14:39;101359.00;;;31.71;38.64
43770;BME280;6597;52.218;9.882;2023-09-07T11:17:06;101362.03;;;31.68;38.28
43770;BME280;6597;52.218;9.882;2023-09-07T11:19:32;101352.22;;;31.67;38.21
43770;BME280;6597;52.218;9.882;2023-09-07T11:22:01;101360.91;;;31.54;38.74
43770;BME280;6597;52.218;9.882;2023-09-07T11:24:29;101357.38;;;31.45;38.34
43770;BME280;6597;52.218;9.882;2023-09-07T11:26:57;101349.91;;;31.47;38.84
43770;BME280;6597;52.218;9.882;2023-09-07T11:29:25;101359.16;;;31.69;38.49
43770;BME280;6597;52.218;9.882;2023-09-07T11:31:52;101358.66;;;31.66;38.33
43770;BME280;6597;52.218;9.882;2023-09-07T11:34:18;101354.69;;;31.84;39.86
43770;BME280;6597;52.218;9.882;2023-09-07T11:36:46;101350.38;;;31.98;38.68
43770;BME280;6597;52.218;9.882;2023-09-07T11:39:15;101349.53;;;31.98;37.35
43770;BME280;6597;52.218;9.882;2023-09-07T11:41:44;101333.84;;;32.08;37.13
43770;BME280;6597;52.218;9.882;2023-09-07T11:44:11;101342.28;;;32.13;37.56
43770;BME280;6597;52.218;9.882;2023-09-07T11:46:39;101338.84;;;32.27;37.63
43770;BME280;6597;52.218;9.882;2023-09-07T11:49:06;101343.63;;;32.17;36.63
43770;BME280;6597;52.218;9.882;2023-09-07T11:51:34;101336.66;;;32.14;37.50
43770;BME280;6597;52.218;9.882;2023-09-07T11:54:01;101337.75;;;32.05;36.87
43770;BME280;6597;52.218;9.882;2023-09-07T11:56:29;101331.72;;;32.18;38.02
43770;BME280;6597;52.218;9.882;2023-09-07T11:58:56;101331.81;;;32.33;38.27
43770;BME280;6597;52.218;9.882;2023-09-07T12:01:22;101330.63;;;32.35;36.68
43770;BME280;6597;52.218;9.882;2023-09-07T12:03:49;101325.84;;;32.37;37.05
43770;BME280;6597;52.218;9.882;2023-09-07T12:06:16;101324.59;;;32.63;37.18
43770;BME280;6597;52.218;9.882;2023-09-07T12:08:58;101326.25;;;32.49;35.73
43770;BME280;6597;52.218;9.882;2023-09-07T12:11:25;101326.88;;;32.36;36.35
43770;BME280;6597;52.218;9.882;2023-09-07T12:13:53;101326.09;;;32.28;37.03
43770;BME280;6597;52.218;9.882;2023-09-07T12:16:19;101328.81;;;32.28;36.73
43770;BME280;6597;52.218;9.882;2023-09-07T12:18:46;101329.28;;;32.31;37.27
43770;BME280;6597;52.218;9.882;2023-09-07T12:21:12;101328.13;;;32.48;36.47
43770;BME280;6597;52.218;9.882;2023-09-07T12:23:39;101324.53;;;32.71;36.50
43770;BME280;6597;52.218;9.882;2023-09-07T12:26:05;101319.88;;;32.79;36.48
43770;BME280;6597;52.218;9.882;2023-09-07T12:28:32;101317.22;;;32.71;36.62
43770;BME280;6597;52.218;9.882;2023-09-07T12:31:00;101327.91;;;32.73;35.55
43770;BME280;6597;52.218;9.882;2023-09-07T12:33:27;101318.88;;;32.58;35.83
43770;BME280;6597;52.218;9.882;2023-09-07T12:35:55;101315.69;;;32.54;36.13
43770;BME280;6597;52.218;9.882;2023-09-07T12:38:22;101319.25;;;32.55;36.73
43770;BME280;6597;52.218;9.882;2023-09-07T12:40:52;101317.50;;;32.76;36.75
43770;BME280;6597;52.218;9.882;2023-09-07T12:43:19;101318.13;;;32.87;36.99
43770;BME280;6597;52.218;9.882;2023-09-07T12:45:46;101323.00;;;33.06;36.17
43770;BME280;6597;52.218;9.882;2023-09-07T12:48:13;101325.44;;;33.01;36.40
43770;BME280;6597;52.218;9.882;2023-09-07T12:50:41;101319.44;;;32.91;35.71
43770;BME280;6597;52.218;9.882;2023-09-07T12:53:08;101309.66;;;32.82;36.73
43770;BME280;6597;52.218;9.882;2023-09-07T12:55:34;101306.72;;;32.68;35.75
43770;BME280;6597;52.218;9.882;2023-09-07T12:58:01;101312.19;;;32.45;37.48